Time;durP1;ratioP1;P1;durP2;ratioP2;P2;SDS_P1;SDS_P2;PMS_P1;PMS_P2;Temp;Humidity;BMP_temperature;BMP_pressure;BME280_temperature;BME280_humidity;BME280_pressure;Samples;Min_cycle;Max_cycle;Signal;HPM_P1;HPM_P2
2021/01/31 00:01:16;;;;;;;17.25;7.85;;;;;;;0.52;100.00;100176.94;5224827;28;20104;-66
2021/01/31 00:03:46;;;;;;;19.75;7.93;;;;;;;0.48;100.00;100178.13;5214316;28;20495;-65
2021/01/31 00:06:18;;;;;;;14.77;7.47;;;;;;;0.41;100.00;100170.81;5223067;28;20370;-66
2021/01/31 00:08:48;;;;;;;20.60;9.02;;;;;;;0.35;100.00;100179.16;5225753;28;20025;-65
2021/01/31 00:11:19;;;;;;;19.17;8.57;;;;;;;0.24;100.00;100172.91;5225361;28;20051;-66
2021/01/31 00:13:50;;;;;;;20.48;7.72;;;;;;;0.21;100.00;100186.34;5224608;28;20396;-65
2021/01/31 00:16:20;;;;;;;16.83;7.90;;;;;;;0.10;100.00;100191.59;5225170;28;20096;-66
2021/01/31 00:18:51;;;;;;;15.10;6.93;;;;;;;0.05;100.00;100185.84;5219816;28;20017;-66
2021/01/31 00:21:21;;;;;;;15.73;8.52;;;;;;;0.00;100.00;100198.53;5214732;28;20392;-66
2021/01/31 00:23:52;;;;;;;17.98;8.18;;;;;;;-0.05;100.00;100198.00;5224363;28;20068;-64
2021/01/31 00:26:22;;;;;;;23.05;9.23;;;;;;;-0.12;100.00;100194.97;5224838;28;20029;-65
2021/01/31 00:28:53;;;;;;;22.58;8.90;;;;;;;-0.20;100.00;100202.63;5225170;28;20081;-66
2021/01/31 00:31:23;;;;;;;20.85;9.40;;;;;;;-0.20;100.00;100207.03;5225521;28;20083;-66
2021/01/31 00:33:53;;;;;;;18.83;8.48;;;;;;;-0.24;100.00;100217.00;5224140;28;20051;-66
2021/01/31 00:36:24;;;;;;;22.00;9.00;;;;;;;-0.34;100.00;100208.91;5225060;28;20028;-66
2021/01/31 00:38:54;;;;;;;20.45;8.38;;;;;;;-0.36;100.00;100215.22;5224417;28;20112;-66
2021/01/31 00:41:25;;;;;;;21.35;9.55;;;;;;;-0.42;100.00;100207.78;5225032;28;20072;-66
2021/01/31 00:43:55;;;;;;;18.73;7.93;;;;;;;-0.43;100.00;100216.66;5223898;28;20045;-66
2021/01/31 00:46:25;;;;;;;19.98;9.77;;;;;;;-0.48;100.00;100209.06;5224788;28;20017;-65
2021/01/31 00:48:56;;;;;;;18.02;8.50;;;;;;;-0.48;100.00;100218.78;5225051;28;20063;-66
2021/01/31 00:51:26;;;;;;;24.95;10.15;;;;;;;-0.52;100.00;100218.16;5223972;28;20033;-64
2021/01/31 00:53:57;;;;;;;20.95;9.60;;;;;;;-0.50;100.00;100218.03;5224203;28;20020;-65
2021/01/31 00:56:27;;;;;;;19.17;8.18;;;;;;;-0.52;100.00;100212.88;5224506;28;20060;-66
2021/01/31 00:58:58;;;;;;;17.75;9.00;;;;;;;-0.52;100.00;100223.41;5224829;28;20508;-66
2021/01/31 01:01:28;;;;;;;21.95;9.18;;;;;;;-0.59;100.00;100222.19;5224989;28;20060;-65
2021/01/31 01:03:59;;;;;;;22.20;9.05;;;;;;;-0.59;100.00;100217.75;5210838;28;20079;-66
2021/01/31 01:06:29;;;;;;;23.13;9.00;;;;;;;-0.58;100.00;100216.81;5223862;28;20032;-66
2021/01/31 01:09:00;;;;;;;20.42;8.00;;;;;;;-0.60;100.00;100215.25;5224405;28;20020;-66
2021/01/31 01:11:30;;;;;;;20.33;9.32;;;;;;;-0.62;100.00;100220.59;5224697;28;20049;-65
2021/01/31 01:14:01;;;;;;;22.10;10.07;;;;;;;-0.68;100.00;100220.22;5222834;28;20489;-64
2021/01/31 01:16:32;;;;;;;21.75;8.98;;;;;;;-0.71;100.00;100218.63;5224842;28;20485;-64
2021/01/31 01:19:04;;;;;;;21.83;9.55;;;;;;;-0.71;100.00;100212.50;5217728;28;20440;-65
2021/01/31 01:21:35;;;;;;;21.02;9.57;;;;;;;-0.70;100.00;100224.72;5214104;28;20040;-65
2021/01/31 01:24:05;;;;;;;25.38;9.88;;;;;;;-0.77;100.00;100215.59;5223065;28;20068;-64
2021/01/31 01:26:36;;;;;;;21.17;9.05;;;;;;;-0.77;100.00;100218.22;5223991;28;20025;-65
2021/01/31 01:29:06;;;;;;;20.17;9.07;;;;;;;-0.79;100.00;100216.53;5223731;28;20350;-64
2021/01/31 01:31:38;;;;;;;20.27;9.32;;;;;;;-0.82;100.00;100216.75;5224789;28;20017;-65
2021/01/31 01:34:08;;;;;;;24.40;9.75;;;;;;;-0.85;100.00;100214.34;5222740;28;20024;-64
2021/01/31 01:36:39;;;;;;;19.75;8.93;;;;;;;-0.92;100.00;100213.09;5224751;28;20491;-65
2021/01/31 01:39:09;;;;;;;24.02;8.85;;;;;;;-0.93;100.00;100223.75;5223407;28;20493;-65
2021/01/31 01:41:45;;;;;;;21.13;9.80;;;;;;;-0.95;100.00;100213.31;5224689;28;20025;-65
2021/01/31 01:44:16;;;;;;;25.35;10.85;;;;;;;-0.98;100.00;100220.59;5222865;28;20040;-65
2021/01/31 01:46:52;;;;;;;18.80;8.98;;;;;;;-1.00;100.00;100217.19;5224039;28;20017;-64
2021/01/31 01:49:28;;;;;;;24.48;10.25;;;;;;;-1.02;100.00;100222.59;5223534;28;20048;-64
2021/01/31 01:52:12;;;;;;;25.67;10.57;;;;;;;-1.04;100.00;100221.88;5223751;28;20028;-64
2021/01/31 01:54:45;;;;;;;22.90;10.30;;;;;;;-1.05;100.00;100226.28;5222346;28;20393;-65
2021/01/31 01:57:20;;;;;;;21.05;10.20;;;;;;;-1.03;100.00;100226.16;5223635;28;20020;-63
2021/01/31 01:59:53;;;;;;;24.02;10.82;;;;;;;-1.05;100.00;100220.19;5222542;28;20059;-63
2021/01/31 02:02:32;;;;;;;27.92;10.18;;;;;;;-1.08;100.00;100230.91;5224585;28;20017;-64
2021/01/31 02:05:06;;;;;;;23.45;10.25;;;;;;;-1.09;100.00;100234.50;5210935;28;20025;-65
2021/01/31 02:07:37;;;;;;;23.92;10.23;;;;;;;-1.11;100.00;100231.13;5224143;28;20025;-64
2021/01/31 02:10:09;;;;;;;28.73;10.80;;;;;;;-1.16;100.00;100223.53;5223515;28;20025;-63
2021/01/31 02:12:41;;;;;;;24.60;10.38;;;;;;;-1.16;100.00;100228.81;5223271;28;20028;-65
2021/01/31 02:15:14;;;;;;;25.90;10.48;;;;;;;-1.18;100.00;100228.09;5222687;28;20025;-65
2021/01/31 02:18:00;;;;;;;29.98;11.23;;;;;;;-1.17;100.00;100223.66;5223834;28;20107;-64
2021/01/31 02:20:53;;;;;;;;;;;;;;;-1.22;100.00;100223.13;5207224;28;20029;-64
2021/01/31 02:23:37;;;;;;;26.50;10.30;;;;;;;-1.25;100.00;100218.94;5222778;28;19909;-65
2021/01/31 02:26:16;;;;;;;30.77;11.88;;;;;;;-1.27;100.00;100225.25;5223854;28;20424;-64
2021/01/31 02:28:50;;;;;;;27.95;10.95;;;;;;;-1.32;100.00;100220.28;5223154;28;20060;-65
2021/01/31 02:31:40;;;;;;;25.52;10.45;;;;;;;-1.36;100.00;100219.66;5223684;28;20060;-65
2021/01/31 02:34:27;;;;;;;28.52;11.80;;;;;;;-1.33;100.00;100216.81;5222475;28;20104;-64
2021/01/31 02:37:08;;;;;;;26.77;11.35;;;;;;;-1.36;100.00;100218.81;5223425;28;20116;-65
2021/01/31 02:39:49;;;;;;;31.42;11.95;;;;;;;-1.39;100.00;100217.25;5223024;28;20040;-63
2021/01/31 02:42:32;;;;;;;29.77;11.93;;;;;;;-1.42;100.00;100214.81;5210365;28;20029;-65
2021/01/31 02:45:11;;;;;;;27.98;11.38;;;;;;;-1.45;100.00;100215.03;5222128;28;20500;-65
2021/01/31 02:47:51;;;;;;;27.30;11.70;;;;;;;-1.48;100.00;100217.88;5223570;28;20028;-63
2021/01/31 02:50:27;;;;;;;26.77;11.10;;;;;;;-1.45;100.00;100222.94;5223059;28;20044;-65
2021/01/31 02:53:06;;;;;;;30.73;12.77;;;;;;;-1.47;100.00;100229.25;5222357;28;20021;-65
2021/01/31 02:55:49;;;;;;;30.63;12.05;;;;;;;-1.49;100.00;100236.41;5222878;28;20052;-64
2021/01/31 02:58:24;;;;;;;32.25;11.95;;;;;;;-1.51;100.00;100231.22;5222477;28;20509;-64
2021/01/31 03:01:07;;;;;;;30.25;11.90;;;;;;;-1.53;100.00;100229.66;5222708;28;20029;-65
2021/01/31 03:03:47;;;;;;;31.80;12.45;;;;;;;-1.57;100.00;100229.03;5212974;28;20013;-65
2021/01/31 03:06:27;;;;;;;25.55;11.75;;;;;;;-1.57;100.00;100229.03;5219818;28;20044;-65
2021/01/31 03:09:15;;;;;;;35.42;14.27;;;;;;;-1.62;100.00;100226.69;5223011;28;20029;-63
2021/01/31 03:11:52;;;;;;;28.58;12.77;;;;;;;-1.60;100.00;100221.34;5222699;28;20071;-65
2021/01/31 03:14:28;;;;;;;33.55;13.40;;;;;;;-1.63;100.00;100221.56;5220801;28;20044;-65
2021/01/31 03:17:07;;;;;;;26.65;13.27;;;;;;;-1.66;100.00;100216.47;5221769;28;20036;-65
2021/01/31 03:19:47;;;;;;;28.98;13.23;;;;;;;-1.73;100.00;100207.34;5211893;28;20789;-65
2021/01/31 03:22:25;;;;;;;28.42;11.57;;;;;;;-1.73;100.00;100215.22;5215733;28;20017;-64
2021/01/31 03:25:00;;;;;;;31.48;12.75;;;;;;;-1.79;100.00;100211.22;5218774;28;20090;-64
2021/01/31 03:27:35;;;;;;;31.95;13.15;;;;;;;-1.78;100.00;100223.41;5221292;28;20048;-64
2021/01/31 03:30:09;;;;;;;29.65;12.57;;;;;;;-1.79;100.00;100223.53;5222691;28;20412;-64
2021/01/31 03:32:53;;;;;;;33.05;13.25;;;;;;;-1.80;100.00;100230.59;5209190;28;20278;-65
2021/01/31 03:35:30;;;;;;;34.55;13.63;;;;;;;-1.82;100.00;100228.03;5222022;28;20035;-63
2021/01/31 03:38:14;;;;;;;34.05;13.73;;;;;;;-1.82;100.00;100224.56;5222233;28;20028;-65
2021/01/31 03:40:48;;;;;;;35.17;13.20;;;;;;;-1.84;100.00;100232.56;5222421;28;20466;-65
2021/01/31 03:43:20;;;;;;;29.45;12.73;;;;;;;-1.87;100.00;100224.03;5221285;28;20420;-65
2021/01/31 03:46:14;;;;;;;32.30;13.48;;;;;;;-1.89;100.00;100223.31;5222291;28;20060;-65
2021/01/31 03:48:55;;;;;;;34.40;13.50;;;;;;;-1.94;100.00;100215.72;5222347;28;20025;-64
2021/01/31 03:51:27;;;;;;;30.55;12.82;;;;;;;-1.93;100.00;100227.91;5222180;28;20025;-65
2021/01/31 03:53:58;;;;;;;31.35;12.95;;;;;;;-1.93;100.00;100220.03;5221496;28;20025;-63
2021/01/31 03:56:34;;;;;;;36.28;13.65;;;;;;;-1.93;100.00;100221.81;5221876;28;20017;-65
2021/01/31 03:59:07;;;;;;;32.92;12.98;;;;;;;-1.95;100.00;100226.34;5222723;28;20064;-65
2021/01/31 04:01:39;;;;;;;38.83;13.30;;;;;;;-1.95;100.00;100234.22;5222170;28;20507;-65
2021/01/31 04:04:20;;;;;;;34.20;13.27;;;;;;;-1.95;100.00;100232.44;5207794;28;20125;-63
2021/01/31 04:06:54;;;;;;;33.13;14.60;;;;;;;-2.01;100.00;100240.72;5221962;28;20024;-63
2021/01/31 04:09:27;;;;;;;35.67;13.65;;;;;;;-2.01;100.00;100239.88;5221743;28;20040;-65
2021/01/31 04:12:05;;;;;;;39.10;14.93;;;;;;;-2.03;100.00;100237.34;5221996;28;20086;-65
2021/01/31 04:14:52;;;;;;;34.22;14.60;;;;;;;-2.03;100.00;100236.50;5221337;28;20029;-64
2021/01/31 04:17:23;;;;;;;35.40;13.98;;;;;;;-2.08;100.00;100239.44;5221389;28;20021;-63
2021/01/31 04:19:54;;;;;;;34.38;13.73;;;;;;;-2.07;100.00;100238.50;5209229;28;20013;-64
2021/01/31 04:22:24;;;;;;;36.05;14.85;;;;;;;-2.12;100.00;100233.53;5217945;28;20056;-65
2021/01/31 04:24:55;;;;;;;34.92;14.32;;;;;;;-2.14;100.00;100231.97;5221783;28;20525;-65
2021/01/31 04:27:25;;;;;;;35.40;14.15;;;;;;;-2.18;100.00;100233.09;5221765;28;20480;-65
2021/01/31 04:29:56;;;;;;;35.00;14.57;;;;;;;-2.19;100.00;100237.50;5221838;28;20028;-65
2021/01/31 04:32:27;;;;;;;37.00;13.55;;;;;;;-2.16;100.00;100233.81;5221540;28;20021;-64
2021/01/31 04:34:57;;;;;;;34.47;13.57;;;;;;;-2.14;100.00;100231.97;5221049;28;20032;-64
2021/01/31 04:37:28;;;;;;;38.88;14.70;;;;;;;-2.13;100.00;100236.28;5222866;28;20477;-65
2021/01/31 04:39:58;;;;;;;37.22;13.43;;;;;;;-2.13;100.00;100238.91;5225683;28;20035;-63
2021/01/31 04:42:29;;;;;;;39.72;14.27;;;;;;;-2.13;100.00;100236.28;5224820;28;20021;-65
2021/01/31 04:44:59;;;;;;;40.47;14.73;;;;;;;-2.15;100.00;100249.53;5225066;28;20490;-64
2021/01/31 04:47:36;;;;;;;38.03;14.98;;;;;;;-2.18;100.00;100244.44;5225140;28;20024;-65
2021/01/31 04:50:15;;;;;;;35.20;13.75;;;;;;;-2.19;100.00;100249.81;5225874;28;20424;-64
2021/01/31 04:53:12;;;;;;;38.17;13.65;;;;;;;-2.21;100.00;100254.31;5224370;28;20036;-63
2021/01/31 04:56:08;;;;;;;37.83;13.43;;;;;;;-2.23;100.00;100250.94;5215420;28;20028;-65
2021/01/31 04:58:50;;;;;;;36.35;14.73;;;;;;;-2.21;100.00;100254.31;5212533;28;20437;-65
2021/01/31 05:01:24;;;;;;;36.38;14.75;;;;;;;-2.23;100.00;100250.94;5224775;28;20094;-65
2021/01/31 05:03:59;;;;;;;39.40;15.52;;;;;;;-2.26;100.00;100256.38;5212441;28;20036;-65
2021/01/31 05:06:36;;;;;;;40.35;14.98;;;;;;;-2.28;100.00;100251.25;5224893;28;20021;-64
2021/01/31 05:09:15;;;;;;;33.83;13.98;;;;;;;-2.28;100.00;100259.13;5224513;28;20028;-65
2021/01/31 05:11:58;;;;;;;32.47;14.15;;;;;;;-2.25;100.00;100258.94;5225046;28;20119;-64
2021/01/31 05:14:48;;;;;;;35.45;12.77;;;;;;;-2.28;100.00;100251.25;5224414;28;20056;-64
2021/01/31 05:17:19;;;;;;;34.58;13.75;;;;;;;-2.34;100.00;100254.28;5224730;28;20040;-65
2021/01/31 05:19:50;;;;;;;38.38;13.82;;;;;;;-2.34;100.00;100262.16;5212281;28;20108;-63
2021/01/31 05:22:27;;;;;;;35.47;14.15;;;;;;;-2.38;100.00;100261.50;5220608;28;20162;-66
2021/01/31 05:24:57;;;;;;;36.50;14.35;;;;;;;-2.37;100.00;100268.44;5224077;28;20068;-65
2021/01/31 05:27:32;;;;;;;38.75;14.98;;;;;;;-2.40;100.00;100270.44;5224527;28;20439;-65
2021/01/31 05:30:03;;;;;;;50.95;16.75;;;;;;;-2.40;100.00;100265.19;5224910;28;20025;-65
2021/01/31 05:33:00;;;;;;;40.13;14.57;;;;;;;-2.45;100.00;100272.50;5224027;28;20477;-64
2021/01/31 05:35:34;;;;;;;35.08;15.80;;;;;;;-2.42;100.00;100270.50;5224811;28;20050;-64
2021/01/31 05:38:05;;;;;;;38.53;14.73;;;;;;;-2.45;100.00;100278.59;5224598;28;20024;-65
2021/01/31 05:40:40;;;;;;;39.85;15.52;;;;;;;-2.49;100.00;100277.09;5224555;28;20032;-65
2021/01/31 05:43:15;;;;;;;37.03;14.68;;;;;;;-2.48;100.00;100283.19;5223331;28;20100;-65
2021/01/31 05:45:46;;;;;;;40.72;15.68;;;;;;;-2.52;100.00;100279.91;5224756;28;20017;-65
2021/01/31 05:48:23;;;;;;;37.33;15.13;;;;;;;-2.52;100.00;100298.31;5224023;28;20032;-64
2021/01/31 05:50:53;;;;;;;38.13;13.57;;;;;;;-2.51;100.00;100294.75;5224242;28;20021;-65
2021/01/31 05:53:33;;;;;;;38.67;15.48;;;;;;;-2.58;100.00;100292.59;5222746;28;20047;-65
2021/01/31 05:56:27;;;;;;;37.72;15.07;;;;;;;-2.58;100.00;100293.44;5224415;28;20086;-65
2021/01/31 05:58:58;;;;;;;38.00;13.48;;;;;;;-2.63;100.00;100295.50;5224202;28;20227;-65
2021/01/31 06:01:28;;;;;;;42.88;15.20;;;;;;;-2.63;100.00;100293.72;5224293;28;20130;-64
2021/01/31 06:04:11;;;;;;;40.83;16.02;;;;;;;-2.61;100.00;100285.78;5211069;28;20037;-65
2021/01/31 06:06:43;;;;;;;38.42;15.20;;;;;;;-2.62;100.00;100277.03;5212048;28;20032;-65
2021/01/31 06:09:18;;;;;;;41.67;15.77;;;;;;;-2.62;100.00;100282.28;5223621;28;20383;-65
2021/01/31 06:11:49;;;;;;;46.63;16.65;;;;;;;-2.66;100.00;100277.31;5224264;28;20029;-64
2021/01/31 06:14:30;;;;;;;41.17;15.43;;;;;;;-2.64;100.00;100278.06;5222753;28;20712;-65
2021/01/31 06:17:04;;;;;;;43.38;14.88;;;;;;;-2.67;100.00;100276.47;5224289;28;20029;-65
2021/01/31 06:19:37;;;;;;;37.30;15.07;;;;;;;-2.65;100.00;100279.03;5205649;28;20108;-63
2021/01/31 06:22:12;;;;;;;42.58;16.63;;;;;;;-2.72;100.00;100291.66;5218445;28;20504;-65
2021/01/31 06:24:47;;;;;;;42.38;16.05;;;;;;;-2.70;100.00;100286.34;5222547;28;20025;-65
2021/01/31 06:27:31;;;;;;;38.55;15.30;;;;;;;-2.76;100.00;100289.31;5224062;28;20370;-64
2021/01/31 06:30:12;;;;;;;38.53;15.77;;;;;;;-2.73;100.00;100294.41;5223548;28;20025;-65
2021/01/31 06:32:42;;;;;;;42.15;15.48;;;;;;;-2.82;100.00;100301.06;5223577;28;20032;-65
2021/01/31 06:35:16;;;;;;;38.60;16.30;;;;;;;-2.80;100.00;100293.94;5222957;28;20033;-65
2021/01/31 06:38:03;;;;;;;38.65;16.25;;;;;;;-2.78;100.00;100304.34;5223950;28;20571;-65
2021/01/31 06:40:48;;;;;;;43.25;15.93;;;;;;;-2.82;100.00;100306.31;5223519;28;20043;-65
2021/01/31 06:43:45;;;;;;;45.83;17.05;;;;;;;-2.83;100.00;100301.16;5221894;28;20036;-65
2021/01/31 06:46:25;;;;;;;50.58;16.33;;;;;;;-2.88;100.00;100298.81;5223389;28;20028;-64
2021/01/31 06:49:09;;;;;;;46.17;16.40;;;;;;;-2.90;100.00;100293.66;5223514;28;20035;-65
2021/01/31 06:52:04;;;;;;;38.20;15.07;;;;;;;-2.91;100.00;100291.97;5222669;28;20025;-64
2021/01/31 06:54:59;;;;;;;41.17;17.05;;;;;;;-2.95;100.00;100303.59;5222675;28;20029;-65
2021/01/31 06:57:58;;;;;;;44.95;16.42;;;;;;;-2.91;100.00;100306.88;5223399;28;20060;-64
2021/01/31 07:00:46;;;;;;;44.85;16.67;;;;;;;-2.90;100.00;100306.78;5212137;28;20031;-65
2021/01/31 07:03:39;;;;;;;43.25;17.02;;;;;;;-2.91;100.00;100301.63;5215634;28;20405;-66
2021/01/31 07:06:29;;;;;;;41.60;15.05;;;;;;;-2.95;100.00;100305.38;5218605;28;20017;-65
2021/01/31 07:09:10;;;;;;;45.17;16.50;;;;;;;-2.97;100.00;100302.00;5222886;28;20036;-64
2021/01/31 07:11:47;;;;;;;40.67;17.05;;;;;;;-2.96;100.00;100299.28;5211317;28;20055;-65
2021/01/31 07:14:26;;;;;;;45.38;16.70;;;;;;;-2.96;100.00;100295.78;5221923;28;20104;-64
2021/01/31 07:17:26;;;;;;;48.13;17.15;;;;;;;-2.98;100.00;100280.16;5222565;28;20039;-65
2021/01/31 07:20:02;;;;;;;39.70;16.20;;;;;;;-2.96;100.00;100286.16;5209860;28;20026;-65
2021/01/31 07:22:41;;;;;;;50.75;17.65;;;;;;;-2.96;100.00;100283.53;5220292;28;20028;-66
2021/01/31 07:25:33;;;;;;;55.30;17.05;;;;;;;-2.89;100.00;100294.50;5222000;28;20037;-65
2021/01/31 07:28:09;;;;;;;38.45;15.63;;;;;;;-2.89;100.00;100297.13;5223135;28;20025;-66
2021/01/31 07:30:46;;;;;;;42.45;17.50;;;;;;;-2.84;100.00;100309.97;5222298;28;20071;-66
2021/01/31 07:33:21;;;;;;;46.33;16.55;;;;;;;-2.80;100.00;100314.09;5221990;28;20370;-65
2021/01/31 07:35:52;;;;;;;36.63;15.32;;;;;;;-2.80;100.00;100320.19;5222295;28;20025;-65
2021/01/31 07:38:29;;;;;;;38.40;15.20;;;;;;;-2.77;100.00;100317.38;5222925;28;20025;-66
2021/01/31 07:41:01;;;;;;;42.22;16.02;;;;;;;-2.75;100.00;100322.53;5222486;28;20086;-66
2021/01/31 07:43:35;;;;;;;41.83;16.55;;;;;;;-2.77;100.00;100306.84;5221895;28;20024;-65
2021/01/31 07:46:10;;;;;;;44.15;16.63;;;;;;;-2.78;100.00;100320.09;5222049;28;20025;-66
2021/01/31 07:48:48;;;;;;;41.63;15.93;;;;;;;-2.80;100.00;100329.84;5222862;28;20044;-64
2021/01/31 07:51:38;;;;;;;42.70;16.30;;;;;;;-2.77;100.00;100338.38;5221803;28;20051;-64
2021/01/31 07:54:34;;;;;;;42.67;17.15;;;;;;;-2.73;100.00;100336.41;5221663;28;20031;-66
2021/01/31 07:57:24;;;;;;;38.08;15.93;;;;;;;-2.72;100.00;100336.31;5222317;28;20056;-65
2021/01/31 07:59:55;;;;;;;38.50;16.10;;;;;;;-2.68;100.00;100347.47;5222356;28;20025;-66
2021/01/31 08:02:34;;;;;;;51.00;17.02;;;;;;;-2.59;100.00;100341.66;5221926;28;20072;-66
2021/01/31 08:05:07;;;;;;;38.13;16.58;;;;;;;-2.56;100.00;100349.34;5209070;28;20017;-66
2021/01/31 08:07:58;;;;;;;40.95;16.85;;;;;;;-2.51;100.00;100349.03;5222237;28;20024;-66
2021/01/31 08:10:46;;;;;;;40.90;16.20;;;;;;;-2.44;100.00;100353.00;5222197;28;20393;-64
2021/01/31 08:13:43;;;;;;;40.30;15.30;;;;;;;-2.43;100.00;100339.75;5212367;28;20111;-66
2021/01/31 08:16:47;;;;;;;44.08;16.30;;;;;;;-2.40;100.00;100342.22;5226186;28;20025;-66
2021/01/31 08:19:17;;;;;;;46.63;17.65;;;;;;;-2.38;100.00;100348.19;5217482;28;20390;-65
2021/01/31 08:21:56;;;;;;;37.33;15.00;;;;;;;-2.35;100.00;100345.38;5217185;28;20025;-66
2021/01/31 08:24:57;;;;;;;40.38;17.30;;;;;;;-2.32;100.00;100341.72;5225398;28;20104;-66
2021/01/31 08:27:40;;;;;;;39.67;16.77;;;;;;;-2.27;100.00;100341.41;5225188;28;20052;-65
2021/01/31 08:30:27;;;;;;;45.28;16.45;;;;;;;-2.20;100.00;100342.75;5226356;28;20032;-65
2021/01/31 08:32:58;;;;;;;38.33;15.93;;;;;;;-2.15;100.00;100348.56;5225519;28;20029;-65
2021/01/31 08:35:54;;;;;;;44.58;16.38;;;;;;;-1.99;100.00;100341.38;5225371;28;20037;-66
2021/01/31 08:38:25;;;;;;;35.75;15.07;;;;;;;-1.94;100.00;100341.91;5225676;28;20025;-65
2021/01/31 08:40:59;;;;;;;35.08;15.10;;;;;;;-1.80;100.00;100332.31;5225789;28;20069;-65
2021/01/31 08:43:40;;;;;;;42.55;16.17;;;;;;;-1.73;100.00;100329.16;5225144;28;20029;-65
2021/01/31 08:46:17;;;;;;;36.33;15.35;;;;;;;-1.74;100.00;100332.72;5225175;28;20546;-66
2021/01/31 08:48:57;;;;;;;34.72;14.98;;;;;;;-1.73;100.00;100334.41;5225704;28;20033;-65
2021/01/31 08:51:36;;;;;;;34.70;16.50;;;;;;;-1.72;100.00;100335.25;5225379;28;20029;-65
2021/01/31 08:54:11;;;;;;;37.50;14.50;;;;;;;-1.70;100.00;100333.38;5225007;28;20029;-65
2021/01/31 08:56:48;;;;;;;33.00;14.20;;;;;;;-1.70;100.00;100317.59;5224870;28;20036;-63
2021/01/31 08:59:22;;;;;;;35.30;14.95;;;;;;;-1.73;100.00;100323.06;5225692;28;20025;-65
2021/01/31 09:02:17;;;;;;;36.42;14.35;;;;;;;-1.75;100.00;100312.63;5225505;28;20021;-65
2021/01/31 09:04:51;;;;;;;35.92;14.57;;;;;;;-1.71;100.00;100300.94;5211641;28;20036;-65
2021/01/31 09:07:28;;;;;;;41.25;15.30;;;;;;;-1.69;100.00;100303.50;5225323;28;20513;-65
2021/01/31 09:10:13;;;;;;;37.70;15.38;;;;;;;-1.62;100.00;100302.13;5225437;28;20508;-65
2021/01/31 09:12:43;;;;;;;37.53;15.32;;;;;;;-1.58;100.00;100301.00;5224683;28;20388;-65
2021/01/31 09:15:21;;;;;;;42.95;16.00;;;;;;;-1.50;100.00;100289.97;5224988;28;20040;-65
2021/01/31 09:17:52;;;;;;;36.00;14.63;;;;;;;-1.43;100.00;100293.88;5224749;28;20029;-65
2021/01/31 09:20:27;;;;;;;38.70;15.90;;;;;;;-1.40;100.00;100291.03;5209348;28;20029;-65
2021/01/31 09:23:05;;;;;;;38.10;16.15;;;;;;;-1.28;100.00;100290.19;5224417;28;20044;-65
2021/01/31 09:25:39;;;;;;;35.28;14.98;;;;;;;-1.19;100.00;100275.56;5225123;28;20488;-65
2021/01/31 09:28:19;;;;;;;37.08;15.63;;;;;;;-1.13;100.00;100276.00;5224537;28;20068;-65
2021/01/31 09:30:56;;;;;;;36.25;15.10;;;;;;;-1.03;100.00;100278.81;5225480;28;20054;-65
2021/01/31 09:33:38;;;;;;;33.28;14.73;;;;;;;-1.01;100.00;100274.28;5223590;28;20048;-65
2021/01/31 09:36:23;;;;;;;36.15;15.18;;;;;;;-0.92;100.00;100284.19;5224440;28;20078;-65
2021/01/31 09:38:56;;;;;;;32.83;14.25;;;;;;;-0.81;100.00;100279.00;5224581;28;20028;-66
2021/01/31 09:41:28;;;;;;;32.53;13.88;;;;;;;-0.72;100.00;100288.06;5225023;28;20029;-64
2021/01/31 09:44:04;;;;;;;35.05;14.43;;;;;;;-0.64;100.00;100283.09;5223593;28;20090;-65
2021/01/31 09:46:35;;;;;;;36.00;14.18;;;;;;;-0.50;100.00;100281.28;5223953;28;20171;-65
2021/01/31 09:49:10;;;;;;;38.63;15.98;;;;;;;-0.42;100.00;100278.94;5224381;28;20025;-65
2021/01/31 09:51:41;;;;;;;35.05;14.07;;;;;;;-0.32;100.00;100275.53;5224443;28;20509;-65
2021/01/31 09:54:22;;;;;;;35.30;15.30;;;;;;;-0.19;100.00;100278.13;5223726;28;20017;-65
2021/01/31 09:56:56;;;;;;;34.45;13.73;;;;;;;-0.12;100.00;100278.53;5224355;28;20366;-65
2021/01/31 09:59:29;;;;;;;36.65;14.05;;;;;;;-0.13;100.00;100280.31;5224294;28;20439;-65
2021/01/31 10:02:15;;;;;;;33.40;14.90;;;;;;;0.03;100.00;100276.56;5224595;28;20427;-65
2021/01/31 10:04:55;;;;;;;30.63;13.40;;;;;;;0.06;100.00;100274.53;5210121;28;20031;-64
2021/01/31 10:07:34;;;;;;;31.25;13.68;;;;;;;0.09;100.00;100268.19;5223423;28;20021;-65
2021/01/31 10:10:26;;;;;;;31.80;13.95;;;;;;;0.24;100.00;100274.97;5224130;28;20025;-65
2021/01/31 10:13:37;;;;;;;35.92;14.68;;;;;;;0.32;100.00;100271.75;5223264;28;20025;-65
2021/01/31 10:16:18;;;;;;;34.10;14.55;;;;;;;0.37;100.00;100262.53;5224072;28;20087;-64
2021/01/31 10:18:49;;;;;;;32.00;13.90;;;;;;;0.49;100.00;100264.25;5217663;28;20112;-65
2021/01/31 10:21:27;;;;;;;32.50;13.88;;;;;;;0.61;100.00;100257.22;5212945;28;20025;-64
2021/01/31 10:24:01;;;;;;;33.97;13.98;;;;;;;0.66;100.00;100249.78;5222789;28;20052;-65
2021/01/31 10:26:32;;;;;;;34.00;14.73;;;;;;;0.63;100.00;100251.81;5223855;28;20029;-67
2021/01/31 10:29:05;;;;;;;36.67;14.35;;;;;;;0.67;100.00;100245.34;5223495;28;20079;-65
2021/01/31 10:31:38;;;;;;;35.95;14.55;;;;;;;0.80;100.00;100239.94;5223646;28;20033;-65
2021/01/31 10:34:10;;;;;;;29.08;12.65;;;;;;;0.85;100.00;100243.91;5222793;28;20501;-65
2021/01/31 10:36:44;;;;;;;34.05;13.85;;;;;;;0.90;100.00;100247.03;5222588;28;20025;-65
2021/01/31 10:39:15;;;;;;;27.67;12.18;;;;;;;0.87;100.00;100246.44;5223850;28;20074;-65
2021/01/31 10:41:46;;;;;;;32.33;13.02;;;;;;;0.83;100.00;100242.34;5223674;28;20427;-65
2021/01/31 10:44:26;;;;;;;30.48;12.98;;;;;;;0.80;100.00;100243.44;5222862;28;20025;-65
2021/01/31 10:46:57;;;;;;;28.08;13.57;;;;;;;0.88;100.00;100233.13;5222722;28;20025;-64
2021/01/31 10:49:27;;;;;;;29.17;13.30;;;;;;;1.00;100.00;100236.59;5223306;28;20025;-65
2021/01/31 10:51:58;;;;;;;27.25;12.02;;;;;;;1.07;100.00;100237.81;5223020;28;20104;-65
2021/01/31 10:54:28;;;;;;;27.13;11.25;;;;;;;1.15;100.00;100222.19;5222452;28;20032;-65
2021/01/31 10:56:58;;;;;;;30.13;12.25;;;;;;;1.11;100.00;100225.22;5223297;28;20029;-65
2021/01/31 10:59:29;;;;;;;30.83;12.70;;;;;;;1.22;100.00;100212.81;5222817;28;20389;-65
2021/01/31 11:01:59;;;;;;;30.83;12.55;;;;;;;1.31;100.00;100207.78;5223539;28;20474;-64
2021/01/31 11:04:30;;;;;;;34.17;12.90;;;;;;;1.36;100.00;100203.81;5208926;28;20021;-65
2021/01/31 11:07:00;;;;;;;28.70;12.10;;;;;;;1.38;100.00;100203.66;5223846;28;20082;-65
2021/01/31 11:09:31;;;;;;;28.83;11.82;;;;;;;1.47;100.00;100210.88;5222905;28;20013;-64
2021/01/31 11:12:02;;;;;;;27.42;12.25;;;;;;;1.63;100.00;100195.44;5222646;28;20108;-65
2021/01/31 11:14:33;;;;;;;26.48;11.65;;;;;;;1.72;100.00;100197.34;5221888;28;20021;-65
2021/01/31 11:17:03;;;;;;;26.75;11.80;;;;;;;1.80;100.00;100188.75;5222683;28;20039;-65
2021/01/31 11:19:33;;;;;;;28.48;12.00;;;;;;;1.82;100.00;100184.19;5211908;28;20021;-65
2021/01/31 11:22:04;;;;;;;31.38;13.15;;;;;;;1.97;100.00;100185.56;5215797;28;20292;-65
2021/01/31 11:24:34;;;;;;;28.10;11.98;;;;;;;2.00;100.00;100176.53;5221562;28;20043;-64
2021/01/31 11:27:06;;;;;;;31.75;12.25;;;;;;;1.96;100.00;100181.25;5222636;28;20104;-65
2021/01/31 11:29:37;;;;;;;30.50;13.38;;;;;;;2.03;100.00;100177.13;5222800;28;20090;-65
2021/01/31 11:32:07;;;;;;;32.85;14.07;;;;;;;1.87;100.00;100166.16;5222613;28;20036;-65
2021/01/31 11:34:38;;;;;;;33.92;14.30;;;;;;;1.63;100.00;100174.28;5222144;28;20104;-65
2021/01/31 11:37:09;;;;;;;34.83;14.20;;;;;;;1.58;100.00;100173.81;5222042;28;20425;-65
2021/01/31 11:39:39;;;;;;;37.13;14.98;;;;;;;1.71;100.00;100171.88;5222829;28;20103;-65
2021/01/31 11:42:10;;;;;;;34.30;14.60;;;;;;;1.83;100.00;100167.34;5222633;28;20025;-65
2021/01/31 11:44:40;;;;;;;37.85;15.43;;;;;;;1.99;100.00;100166.91;5221976;28;20477;-65
2021/01/31 11:47:10;;;;;;;33.33;14.40;;;;;;;2.02;100.00;100166.69;5223244;28;20104;-65